sensor_id;sensor_type;location;lat;lon;timestamp;P1;durP1;ratioP1;P2;durP2;ratioP2
16826;SDS011;8530;49.540;8.576;2023-12-14T00:01:42;23.07;;;20.50;;
16826;SDS011;8530;49.540;8.576;2023-12-14T00:04:11;22.93;;;19.73;;
16826;SDS011;8530;49.540;8.576;2023-12-14T00:06:39;32.87;;;21.50;;
16826;SDS011;8530;49.540;8.576;2023-12-14T00:09:06;23.40;;;18.77;;
16826;SDS011;8530;49.540;8.576;2023-12-14T00:11:35;26.50;;;21.83;;
16826;SDS011;8530;49.540;8.576;2023-12-14T00:14:03;29.10;;;24.03;;
16826;SDS011;8530;49.540;8.576;2023-12-14T00:16:30;31.90;;;24.63;;
16826;SDS011;8530;49.540;8.576;2023-12-14T00:18:57;24.40;;;18.67;;
16826;SDS011;8530;49.540;8.576;2023-12-14T00:21:23;26.20;;;21.33;;
16826;SDS011;8530;49.540;8.576;2023-12-14T00:23:51;29.17;;;22.97;;
16826;SDS011;8530;49.540;8.576;2023-12-14T00:26:18;26.03;;;19.87;;
16826;SDS011;8530;49.540;8.576;2023-12-14T00:28:45;26.87;;;21.40;;
16826;SDS011;8530;49.540;8.576;2023-12-14T00:31:12;24.07;;;20.97;;
16826;SDS011;8530;49.540;8.576;2023-12-14T00:33:39;23.83;;;18.30;;
16826;SDS011;8530;49.540;8.576;2023-12-14T00:36:05;31.70;;;23.03;;
16826;SDS011;8530;49.540;8.576;2023-12-14T00:38:33;24.43;;;21.07;;
16826;SDS011;8530;49.540;8.576;2023-12-14T00:41:01;28.27;;;20.80;;
16826;SDS011;8530;49.540;8.576;2023-12-14T00:43:27;27.03;;;21.27;;
16826;SDS011;8530;49.540;8.576;2023-12-14T00:45:54;28.83;;;21.63;;
16826;SDS011;8530;49.540;8.576;2023-12-14T00:48:21;27.77;;;21.17;;
16826;SDS011;8530;49.540;8.576;2023-12-14T00:50:48;24.13;;;21.00;;
16826;SDS011;8530;49.540;8.576;2023-12-14T00:53:14;27.00;;;20.30;;
16826;SDS011;8530;49.540;8.576;2023-12-14T00:55:41;26.23;;;21.30;;
16826;SDS011;8530;49.540;8.576;2023-12-14T00:58:10;30.93;;;21.63;;
16826;SDS011;8530;49.540;8.576;2023-12-14T01:00:38;22.37;;;19.20;;
16826;SDS011;8530;49.540;8.576;2023-12-14T01:03:04;31.73;;;22.43;;
16826;SDS011;8530;49.540;8.576;2023-12-14T01:05:31;26.07;;;21.13;;
16826;SDS011;8530;49.540;8.576;2023-12-14T01:07:58;25.50;;;20.93;;
16826;SDS011;8530;49.540;8.576;2023-12-14T01:10:25;25.00;;;21.67;;
16826;SDS011;8530;49.540;8.576;2023-12-14T01:12:51;26.23;;;22.77;;
16826;SDS011;8530;49.540;8.576;2023-12-14T01:15:20;27.23;;;22.60;;
16826;SDS011;8530;49.540;8.576;2023-12-14T01:17:46;23.00;;;19.43;;
16826;SDS011;8530;49.540;8.576;2023-12-14T01:20:13;21.50;;;19.03;;
16826;SDS011;8530;49.540;8.576;2023-12-14T01:22:40;23.33;;;18.23;;
16826;SDS011;8530;49.540;8.576;2023-12-14T01:25:07;29.20;;;19.93;;
16826;SDS011;8530;49.540;8.576;2023-12-14T01:27:34;26.00;;;21.03;;
16826;SDS011;8530;49.540;8.576;2023-12-14T01:30:00;27.27;;;22.53;;
16826;SDS011;8530;49.540;8.576;2023-12-14T01:32:29;29.43;;;22.30;;
16826;SDS011;8530;49.540;8.576;2023-12-14T01:34:55;21.83;;;18.90;;
16826;SDS011;8530;49.540;8.576;2023-12-14T01:37:22;27.00;;;21.17;;
16826;SDS011;8530;49.540;8.576;2023-12-14T01:39:49;21.67;;;17.30;;
16826;SDS011;8530;49.540;8.576;2023-12-14T01:42:15;27.73;;;21.00;;
16826;SDS011;8530;49.540;8.576;2023-12-14T01:44:42;29.00;;;21.90;;
16826;SDS011;8530;49.540;8.576;2023-12-14T01:47:09;25.90;;;19.10;;
16826;SDS011;8530;49.540;8.576;2023-12-14T01:49:37;23.20;;;19.57;;
16826;SDS011;8530;49.540;8.576;2023-12-14T01:52:04;22.40;;;19.20;;
16826;SDS011;8530;49.540;8.576;2023-12-14T01:54:31;26.77;;;23.60;;
16826;SDS011;8530;49.540;8.576;2023-12-14T01:56:58;23.60;;;19.13;;
16826;SDS011;8530;49.540;8.576;2023-12-14T01:59:25;26.43;;;21.73;;
16826;SDS011;8530;49.540;8.576;2023-12-14T02:01:52;22.00;;;18.77;;
16826;SDS011;8530;49.540;8.576;2023-12-14T02:04:21;23.13;;;18.47;;
16826;SDS011;8530;49.540;8.576;2023-12-14T02:06:49;27.97;;;21.53;;
16826;SDS011;8530;49.540;8.576;2023-12-14T02:09:16;24.20;;;20.33;;
16826;SDS011;8530;49.540;8.576;2023-12-14T02:11:43;23.07;;;19.40;;
16826;SDS011;8530;49.540;8.576;2023-12-14T02:14:10;22.40;;;19.53;;
16826;SDS011;8530;49.540;8.576;2023-12-14T02:16:37;25.00;;;20.97;;
16826;SDS011;8530;49.540;8.576;2023-12-14T02:19:04;27.90;;;22.47;;
16826;SDS011;8530;49.540;8.576;2023-12-14T02:21:31;28.00;;;24.00;;
16826;SDS011;8530;49.540;8.576;2023-12-14T02:23:59;27.73;;;22.70;;
16826;SDS011;8530;49.540;8.576;2023-12-14T02:26:25;30.73;;;22.67;;
16826;SDS011;8530;49.540;8.576;2023-12-14T02:28:52;34.47;;;24.37;;
16826;SDS011;8530;49.540;8.576;2023-12-14T02:31:19;30.93;;;22.00;;
16826;SDS011;8530;49.540;8.576;2023-12-14T02:33:46;36.90;;;25.63;;
16826;SDS011;8530;49.540;8.576;2023-12-14T02:36:13;23.33;;;20.33;;
16826;SDS011;8530;49.540;8.576;2023-12-14T02:38:39;30.50;;;22.50;;
16826;SDS011;8530;49.540;8.576;2023-12-14T02:41:08;25.67;;;20.83;;
16826;SDS011;8530;49.540;8.576;2023-12-14T02:43:36;29.30;;;23.70;;
16826;SDS011;8530;49.540;8.576;2023-12-14T02:46:03;30.17;;;25.10;;
16826;SDS011;8530;49.540;8.576;2023-12-14T02:48:30;26.53;;;20.83;;
16826;SDS011;8530;49.540;8.576;2023-12-14T02:50:56;29.03;;;23.40;;
16826;SDS011;8530;49.540;8.576;2023-12-14T02:53:24;23.10;;;19.17;;
16826;SDS011;8530;49.540;8.576;2023-12-14T02:55:51;29.43;;;23.53;;
16826;SDS011;8530;49.540;8.576;2023-12-14T02:58:19;32.80;;;21.00;;
16826;SDS011;8530;49.540;8.576;2023-12-14T03:00:46;21.43;;;19.00;;
16826;SDS011;8530;49.540;8.576;2023-12-14T03:03:13;31.80;;;23.03;;
16826;SDS011;8530;49.540;8.576;2023-12-14T03:05:39;31.23;;;22.80;;
16826;SDS011;8530;49.540;8.576;2023-12-14T03:08:06;25.33;;;21.43;;
16826;SDS011;8530;49.540;8.576;2023-12-14T03:10:33;25.53;;;20.87;;
16826;SDS011;8530;49.540;8.576;2023-12-14T03:12:59;25.90;;;19.20;;
16826;SDS011;8530;49.540;8.576;2023-12-14T03:15:28;26.77;;;20.90;;
16826;SDS011;8530;49.540;8.576;2023-12-14T03:17:54;24.47;;;21.40;;
16826;SDS011;8530;49.540;8.576;2023-12-14T03:20:21;20.83;;;17.33;;
16826;SDS011;8530;49.540;8.576;2023-12-14T03:22:48;29.67;;;22.57;;
16826;SDS011;8530;49.540;8.576;2023-12-14T03:25:14;19.77;;;17.60;;
16826;SDS011;8530;49.540;8.576;2023-12-14T03:27:41;23.70;;;19.23;;
16826;SDS011;8530;49.540;8.576;2023-12-14T03:30:08;24.33;;;21.50;;
16826;SDS011;8530;49.540;8.576;2023-12-14T03:32:37;20.40;;;17.70;;
16826;SDS011;8530;49.540;8.576;2023-12-14T03:35:04;24.70;;;18.03;;
16826;SDS011;8530;49.540;8.576;2023-12-14T03:37:33;23.03;;;17.53;;
16826;SDS011;8530;49.540;8.576;2023-12-14T03:40:00;24.47;;;18.13;;
16826;SDS011;8530;49.540;8.576;2023-12-14T03:42:27;19.33;;;16.27;;
16826;SDS011;8530;49.540;8.576;2023-12-14T03:44:54;24.60;;;20.43;;
16826;SDS011;8530;49.540;8.576;2023-12-14T03:47:20;24.10;;;19.73;;
16826;SDS011;8530;49.540;8.576;2023-12-14T03:49:48;20.40;;;18.23;;
16826;SDS011;8530;49.540;8.576;2023-12-14T03:52:15;26.87;;;21.20;;
16826;SDS011;8530;49.540;8.576;2023-12-14T03:54:42;24.60;;;19.53;;
16826;SDS011;8530;49.540;8.576;2023-12-14T03:57:08;20.97;;;16.90;;
16826;SDS011;8530;49.540;8.576;2023-12-14T03:59:38;17.53;;;15.70;;
16826;SDS011;8530;49.540;8.576;2023-12-14T04:02:05;18.60;;;16.40;;
16826;SDS011;8530;49.540;8.576;2023-12-14T04:04:32;18.53;;;16.60;;
16826;SDS011;8530;49.540;8.576;2023-12-14T04:07:00;24.97;;;15.57;;
16826;SDS011;8530;49.540;8.576;2023-12-14T04:09:26;21.53;;;17.40;;
16826;SDS011;8530;49.540;8.576;2023-12-14T04:11:53;20.90;;;16.43;;
16826;SDS011;8530;49.540;8.576;2023-12-14T04:14:19;22.00;;;18.10;;
16826;SDS011;8530;49.540;8.576;2023-12-14T04:16:46;21.33;;;15.90;;
16826;SDS011;8530;49.540;8.576;2023-12-14T04:19:13;21.93;;;18.43;;
16826;SDS011;8530;49.540;8.576;2023-12-14T04:21:39;27.23;;;20.47;;
16826;SDS011;8530;49.540;8.576;2023-12-14T04:24:07;29.27;;;20.93;;
16826;SDS011;8530;49.540;8.576;2023-12-14T04:26:37;22.27;;;19.30;;
16826;SDS011;8530;49.540;8.576;2023-12-14T04:29:04;26.73;;;22.10;;
16826;SDS011;8530;49.540;8.576;2023-12-14T04:31:32;19.73;;;16.17;;
16826;SDS011;8530;49.540;8.576;2023-12-14T04:33:59;36.27;;;25.30;;
16826;SDS011;8530;49.540;8.576;2023-12-14T04:36:26;42.97;;;29.33;;
16826;SDS011;8530;49.540;8.576;2023-12-14T04:38:52;36.33;;;26.17;;
16826;SDS011;8530;49.540;8.576;2023-12-14T04:41:20;39.20;;;31.20;;
16826;SDS011;8530;49.540;8.576;2023-12-14T04:43:47;31.80;;;25.53;;
16826;SDS011;8530;49.540;8.576;2023-12-14T04:46:14;30.53;;;23.97;;
16826;SDS011;8530;49.540;8.576;2023-12-14T04:48:40;25.73;;;22.60;;
16826;SDS011;8530;49.540;8.576;2023-12-14T04:51:10;26.83;;;22.07;;
16826;SDS011;8530;49.540;8.576;2023-12-14T04:53:37;26.20;;;22.50;;
16826;SDS011;8530;49.540;8.576;2023-12-14T04:56:04;32.63;;;24.30;;
16826;SDS011;8530;49.540;8.576;2023-12-14T04:58:33;23.63;;;19.27;;
16826;SDS011;8530;49.540;8.576;2023-12-14T05:00:59;27.03;;;21.03;;
16826;SDS011;8530;49.540;8.576;2023-12-14T05:03:27;25.47;;;20.23;;
16826;SDS011;8530;49.540;8.576;2023-12-14T05:05:54;29.40;;;23.17;;
16826;SDS011;8530;49.540;8.576;2023-12-14T05:08:21;24.30;;;21.37;;
16826;SDS011;8530;49.540;8.576;2023-12-14T05:10:48;21.57;;;18.87;;
16826;SDS011;8530;49.540;8.576;2023-12-14T05:13:16;25.33;;;18.30;;
16826;SDS011;8530;49.540;8.576;2023-12-14T05:15:45;25.67;;;20.13;;
16826;SDS011;8530;49.540;8.576;2023-12-14T05:18:11;31.40;;;23.33;;
16826;SDS011;8530;49.540;8.576;2023-12-14T05:20:38;26.80;;;20.50;;
16826;SDS011;8530;49.540;8.576;2023-12-14T05:23:05;28.43;;;21.30;;
16826;SDS011;8530;49.540;8.576;2023-12-14T05:25:32;22.60;;;18.47;;
16826;SDS011;8530;49.540;8.576;2023-12-14T05:27:58;23.07;;;19.47;;
16826;SDS011;8530;49.540;8.576;2023-12-14T05:30:25;25.37;;;20.57;;
16826;SDS011;8530;49.540;8.576;2023-12-14T05:32:53;21.57;;;18.10;;
16826;SDS011;8530;49.540;8.576;2023-12-14T05:35:20;24.57;;;18.00;;
16826;SDS011;8530;49.540;8.576;2023-12-14T05:37:47;25.03;;;21.23;;
16826;SDS011;8530;49.540;8.576;2023-12-14T05:40:13;22.17;;;16.87;;
16826;SDS011;8530;49.540;8.576;2023-12-14T05:42:40;32.70;;;18.83;;
16826;SDS011;8530;49.540;8.576;2023-12-14T05:45:07;27.67;;;21.70;;
16826;SDS011;8530;49.540;8.576;2023-12-14T05:47:34;24.83;;;17.77;;
16826;SDS011;8530;49.540;8.576;2023-12-14T05:50:04;23.80;;;20.90;;
16826;SDS011;8530;49.540;8.576;2023-12-14T05:52:31;24.23;;;20.17;;
16826;SDS011;8530;49.540;8.576;2023-12-14T05:54:57;23.33;;;18.90;;
16826;SDS011;8530;49.540;8.576;2023-12-14T05:57:24;24.10;;;19.53;;
16826;SDS011;8530;49.540;8.576;2023-12-14T05:59:51;28.73;;;22.53;;
16826;SDS011;8530;49.540;8.576;2023-12-14T06:02:17;26.97;;;20.53;;
16826;SDS011;8530;49.540;8.576;2023-12-14T06:04:44;27.20;;;21.90;;
16826;SDS011;8530;49.540;8.576;2023-12-14T06:07:12;37.03;;;21.53;;
16826;SDS011;8530;49.540;8.576;2023-12-14T06:09:40;32.53;;;22.70;;
16826;SDS011;8530;49.540;8.576;2023-12-14T06:12:07;28.20;;;22.57;;
16826;SDS011;8530;49.540;8.576;2023-12-14T06:14:33;23.93;;;19.10;;
16826;SDS011;8530;49.540;8.576;2023-12-14T06:17:00;35.63;;;24.00;;
16826;SDS011;8530;49.540;8.576;2023-12-14T06:19:27;32.03;;;23.83;;
16826;SDS011;8530;49.540;8.576;2023-12-14T06:21:54;25.90;;;20.20;;
16826;SDS011;8530;49.540;8.576;2023-12-14T06:24:22;34.13;;;24.03;;
16826;SDS011;8530;49.540;8.576;2023-12-14T06:26:49;28.33;;;21.63;;
16826;SDS011;8530;49.540;8.576;2023-12-14T06:29:15;27.40;;;22.87;;
16826;SDS011;8530;49.540;8.576;2023-12-14T06:31:42;27.23;;;22.30;;
16826;SDS011;8530;49.540;8.576;2023-12-14T06:34:11;33.53;;;23.50;;
16826;SDS011;8530;49.540;8.576;2023-12-14T06:36:41;33.50;;;23.47;;
16826;SDS011;8530;49.540;8.576;2023-12-14T06:39:08;26.60;;;21.67;;
16826;SDS011;8530;49.540;8.576;2023-12-14T06:41:37;26.10;;;22.00;;
16826;SDS011;8530;49.540;8.576;2023-12-14T06:44:04;28.40;;;23.33;;
16826;SDS011;8530;49.540;8.576;2023-12-14T06:46:31;27.60;;;23.77;;
16826;SDS011;8530;49.540;8.576;2023-12-14T06:48:57;28.13;;;20.23;;
16826;SDS011;8530;49.540;8.576;2023-12-14T06:51:24;32.27;;;24.17;;
16826;SDS011;8530;49.540;8.576;2023-12-14T06:53:51;27.83;;;22.10;;
16826;SDS011;8530;49.540;8.576;2023-12-14T06:56:18;33.90;;;23.10;;
16826;SDS011;8530;49.540;8.576;2023-12-14T06:58:46;29.43;;;24.00;;
16826;SDS011;8530;49.540;8.576;2023-12-14T07:01:14;38.83;;;27.60;;
16826;SDS011;8530;49.540;8.576;2023-12-14T07:03:43;30.23;;;23.40;;
16826;SDS011;8530;49.540;8.576;2023-12-14T07:06:11;40.77;;;30.13;;
16826;SDS011;8530;49.540;8.576;2023-12-14T07:08:38;33.80;;;24.77;;
16826;SDS011;8530;49.540;8.576;2023-12-14T07:11:05;25.07;;;20.50;;
16826;SDS011;8530;49.540;8.576;2023-12-14T07:13:32;36.87;;;25.57;;
16826;SDS011;8530;49.540;8.576;2023-12-14T07:16:02;28.50;;;23.27;;
16826;SDS011;8530;49.540;8.576;2023-12-14T07:18:32;29.47;;;22.03;;
16826;SDS011;8530;49.540;8.576;2023-12-14T07:20:59;30.50;;;22.40;;
16826;SDS011;8530;49.540;8.576;2023-12-14T07:23:26;28.20;;;22.87;;
16826;SDS011;8530;49.540;8.576;2023-12-14T07:25:53;29.30;;;21.60;;
16826;SDS011;8530;49.540;8.576;2023-12-14T07:28:20;25.93;;;21.23;;
16826;SDS011;8530;49.540;8.576;2023-12-14T07:30:46;25.67;;;20.63;;
16826;SDS011;8530;49.540;8.576;2023-12-14T07:33:15;26.93;;;22.67;;
16826;SDS011;8530;49.540;8.576;2023-12-14T07:35:42;31.90;;;22.27;;
16826;SDS011;8530;49.540;8.576;2023-12-14T07:38:09;25.30;;;22.70;;
16826;SDS011;8530;49.540;8.576;2023-12-14T07:40:35;29.10;;;23.20;;
16826;SDS011;8530;49.540;8.576;2023-12-14T07:43:03;32.10;;;23.50;;
16826;SDS011;8530;49.540;8.576;2023-12-14T07:45:30;26.30;;;19.73;;
16826;SDS011;8530;49.540;8.576;2023-12-14T07:47:57;33.50;;;24.63;;
16826;SDS011;8530;49.540;8.576;2023-12-14T07:50:25;24.70;;;20.83;;
16826;SDS011;8530;49.540;8.576;2023-12-14T07:52:52;34.73;;;22.23;;
16826;SDS011;8530;49.540;8.576;2023-12-14T07:55:19;29.97;;;24.37;;
16826;SDS011;8530;49.540;8.576;2023-12-14T07:57:46;33.53;;;27.03;;
16826;SDS011;8530;49.540;8.576;2023-12-14T08:00:13;32.57;;;25.53;;
16826;SDS011;8530;49.540;8.576;2023-12-14T08:02:41;32.40;;;24.30;;
16826;SDS011;8530;49.540;8.576;2023-12-14T08:05:08;28.60;;;22.23;;
16826;SDS011;8530;49.540;8.576;2023-12-14T08:07:36;32.37;;;27.87;;
16826;SDS011;8530;49.540;8.576;2023-12-14T08:10:03;29.17;;;24.60;;
16826;SDS011;8530;49.540;8.576;2023-12-14T08:12:30;24.53;;;21.23;;
16826;SDS011;8530;49.540;8.576;2023-12-14T08:14:57;21.27;;;18.90;;
16826;SDS011;8530;49.540;8.576;2023-12-14T08:17:24;28.63;;;21.10;;
16826;SDS011;8530;49.540;8.576;2023-12-14T08:19:52;29.00;;;22.37;;
16826;SDS011;8530;49.540;8.576;2023-12-14T08:22:19;26.13;;;20.70;;
16826;SDS011;8530;49.540;8.576;2023-12-14T08:24:48;28.40;;;22.50;;
16826;SDS011;8530;49.540;8.576;2023-12-14T08:27:15;31.63;;;22.80;;
16826;SDS011;8530;49.540;8.576;2023-12-14T08:29:41;27.90;;;23.27;;
16826;SDS011;8530;49.540;8.576;2023-12-14T08:32:10;23.80;;;21.27;;
16826;SDS011;8530;49.540;8.576;2023-12-14T08:34:37;25.40;;;21.80;;
16826;SDS011;8530;49.540;8.576;2023-12-14T08:37:04;25.53;;;21.03;;
16826;SDS011;8530;49.540;8.576;2023-12-14T08:39:30;26.03;;;20.40;;
16826;SDS011;8530;49.540;8.576;2023-12-14T08:41:58;28.60;;;21.00;;
16826;SDS011;8530;49.540;8.576;2023-12-14T08:44:25;29.27;;;21.00;;
16826;SDS011;8530;49.540;8.576;2023-12-14T08:46:52;27.57;;;20.60;;
16826;SDS011;8530;49.540;8.576;2023-12-14T08:49:18;26.20;;;20.97;;
16826;SDS011;8530;49.540;8.576;2023-12-14T08:51:45;23.93;;;20.37;;
16826;SDS011;8530;49.540;8.576;2023-12-14T08:54:12;22.47;;;18.03;;
16826;SDS011;8530;49.540;8.576;2023-12-14T08:56:38;30.70;;;20.23;;
16826;SDS011;8530;49.540;8.576;2023-12-14T08:59:06;26.10;;;17.27;;
16826;SDS011;8530;49.540;8.576;2023-12-14T09:01:34;21.40;;;18.33;;
16826;SDS011;8530;49.540;8.576;2023-12-14T09:04:00;21.10;;;17.70;;
16826;SDS011;8530;49.540;8.576;2023-12-14T09:06:27;20.30;;;16.70;;
16826;SDS011;8530;49.540;8.576;2023-12-14T09:08:54;21.97;;;16.17;;
16826;SDS011;8530;49.540;8.576;2023-12-14T09:11:21;22.70;;;15.77;;
16826;SDS011;8530;49.540;8.576;2023-12-14T09:13:47;25.70;;;17.30;;
16826;SDS011;8530;49.540;8.576;2023-12-14T09:16:17;22.67;;;16.97;;
16826;SDS011;8530;49.540;8.576;2023-12-14T09:18:44;21.70;;;17.30;;
16826;SDS011;8530;49.540;8.576;2023-12-14T09:21:10;18.40;;;15.03;;
16826;SDS011;8530;49.540;8.576;2023-12-14T09:23:37;26.80;;;16.33;;
16826;SDS011;8530;49.540;8.576;2023-12-14T09:26:05;16.30;;;13.50;;
16826;SDS011;8530;49.540;8.576;2023-12-14T09:28:32;21.10;;;15.60;;
16826;SDS011;8530;49.540;8.576;2023-12-14T09:30:59;13.13;;;11.67;;
16826;SDS011;8530;49.540;8.576;2023-12-14T09:33:27;14.83;;;13.23;;
16826;SDS011;8530;49.540;8.576;2023-12-14T09:35:55;16.50;;;14.43;;
16826;SDS011;8530;49.540;8.576;2023-12-14T09:38:21;15.83;;;13.10;;
16826;SDS011;8530;49.540;8.576;2023-12-14T09:40:48;12.70;;;11.20;;
16826;SDS011;8530;49.540;8.576;2023-12-14T09:43:15;13.93;;;11.27;;
16826;SDS011;8530;49.540;8.576;2023-12-14T09:45:42;12.90;;;11.50;;
16826;SDS011;8530;49.540;8.576;2023-12-14T09:48:10;19.47;;;9.90;;
16826;SDS011;8530;49.540;8.576;2023-12-14T09:50:39;12.90;;;11.03;;
16826;SDS011;8530;49.540;8.576;2023-12-14T09:53:06;16.80;;;11.67;;
16826;SDS011;8530;49.540;8.576;2023-12-14T09:55:33;13.83;;;11.70;;
16826;SDS011;8530;49.540;8.576;2023-12-14T09:58:00;14.57;;;11.40;;
16826;SDS011;8530;49.540;8.576;2023-12-14T10:00:34;12.77;;;11.40;;
16826;SDS011;8530;49.540;8.576;2023-12-14T10:03:19;18.20;;;11.83;;
16826;SDS011;8530;49.540;8.576;2023-12-14T10:05:48;13.27;;;11.87;;
16826;SDS011;8530;49.540;8.576;2023-12-14T10:08:16;13.77;;;11.20;;
16826;SDS011;8530;49.540;8.576;2023-12-14T10:10:42;15.50;;;11.83;;
16826;SDS011;8530;49.540;8.576;2023-12-14T10:13:09;14.53;;;11.43;;
16826;SDS011;8530;49.540;8.576;2023-12-14T10:15:40;19.17;;;12.13;;
16826;SDS011;8530;49.540;8.576;2023-12-14T10:18:07;19.30;;;12.50;;
16826;SDS011;8530;49.540;8.576;2023-12-14T10:20:33;18.10;;;11.50;;
16826;SDS011;8530;49.540;8.576;2023-12-14T10:23:01;14.90;;;11.70;;
16826;SDS011;8530;49.540;8.576;2023-12-14T10:25:27;19.53;;;12.23;;
16826;SDS011;8530;49.540;8.576;2023-12-14T10:27:55;19.30;;;12.23;;
16826;SDS011;8530;49.540;8.576;2023-12-14T10:30:25;18.20;;;11.00;;
16826;SDS011;8530;49.540;8.576;2023-12-14T10:32:52;23.27;;;14.20;;
16826;SDS011;8530;49.540;8.576;2023-12-14T10:35:19;23.57;;;14.97;;
16826;SDS011;8530;49.540;8.576;2023-12-14T10:37:48;29.13;;;16.03;;
16826;SDS011;8530;49.540;8.576;2023-12-14T10:40:18;24.70;;;15.47;;
16826;SDS011;8530;49.540;8.576;2023-12-14T10:42:45;20.80;;;12.93;;
16826;SDS011;8530;49.540;8.576;2023-12-14T10:45:14;18.07;;;12.30;;
16826;SDS011;8530;49.540;8.576;2023-12-14T10:47:42;17.43;;;12.63;;
16826;SDS011;8530;49.540;8.576;2023-12-14T10:50:10;24.00;;;13.60;;
16826;SDS011;8530;49.540;8.576;2023-12-14T10:52:38;19.47;;;12.37;;
16826;SDS011;8530;49.540;8.576;2023-12-14T10:55:06;15.60;;;12.50;;
16826;SDS011;8530;49.540;8.576;2023-12-14T10:57:37;17.83;;;12.80;;
16826;SDS011;8530;49.540;8.576;2023-12-14T11:00:05;15.00;;;12.77;;
16826;SDS011;8530;49.540;8.576;2023-12-14T11:02:40;15.53;;;11.30;;
16826;SDS011;8530;49.540;8.576;2023-12-14T11:05:09;27.60;;;13.17;;
16826;SDS011;8530;49.540;8.576;2023-12-14T11:07:44;23.60;;;14.20;;
16826;SDS011;8530;49.540;8.576;2023-12-14T11:10:11;17.73;;;12.60;;
16826;SDS011;8530;49.540;8.576;2023-12-14T11:12:50;26.63;;;14.87;;
16826;SDS011;8530;49.540;8.576;2023-12-14T11:15:21;15.67;;;13.07;;
16826;SDS011;8530;49.540;8.576;2023-12-14T11:20:50;18.13;;;10.93;;
16826;SDS011;8530;49.540;8.576;2023-12-14T11:23:25;12.47;;;10.20;;
16826;SDS011;8530;49.540;8.576;2023-12-14T11:25:57;13.43;;;10.47;;
16826;SDS011;8530;49.540;8.576;2023-12-14T11:28:29;15.67;;;11.60;;
16826;SDS011;8530;49.540;8.576;2023-12-14T11:30:57;14.73;;;10.80;;
16826;SDS011;8530;49.540;8.576;2023-12-14T11:33:24;17.63;;;11.07;;
16826;SDS011;8530;49.540;8.576;2023-12-14T11:35:54;12.30;;;10.13;;
16826;SDS011;8530;49.540;8.576;2023-12-14T11:38:21;13.30;;;10.47;;
16826;SDS011;8530;49.540;8.576;2023-12-14T11:40:50;13.53;;;9.63;;
16826;SDS011;8530;49.540;8.576;2023-12-14T11:43:17;10.97;;;9.43;;
16826;SDS011;8530;49.540;8.576;2023-12-14T11:45:48;19.30;;;11.80;;
16826;SDS011;8530;49.540;8.576;2023-12-14T11:48:15;12.47;;;9.27;;
16826;SDS011;8530;49.540;8.576;2023-12-14T11:50:42;14.40;;;11.57;;
16826;SDS011;8530;49.540;8.576;2023-12-14T11:53:09;14.67;;;9.33;;
16826;SDS011;8530;49.540;8.576;2023-12-14T11:55:36;16.37;;;11.63;;
16826;SDS011;8530;49.540;8.576;2023-12-14T11:58:04;15.83;;;11.47;;
16826;SDS011;8530;49.540;8.576;2023-12-14T12:00:32;15.90;;;12.07;;
16826;SDS011;8530;49.540;8.576;2023-12-14T12:03:12;14.60;;;10.80;;
16826;SDS011;8530;49.540;8.576;2023-12-14T12:05:40;14.10;;;10.63;;
16826;SDS011;8530;49.540;8.576;2023-12-14T12:08:08;15.77;;;10.93;;
16826;SDS011;8530;49.540;8.576;2023-12-14T12:10:36;15.83;;;11.60;;
16826;SDS011;8530;49.540;8.576;2023-12-14T12:13:03;13.87;;;10.70;;
16826;SDS011;8530;49.540;8.576;2023-12-14T12:15:31;15.37;;;11.17;;
16826;SDS011;8530;49.540;8.576;2023-12-14T12:18:00;16.47;;;11.60;;
16826;SDS011;8530;49.540;8.576;2023-12-14T12:20:30;13.83;;;11.57;;
16826;SDS011;8530;49.540;8.576;2023-12-14T12:22:57;15.90;;;11.00;;
16826;SDS011;8530;49.540;8.576;2023-12-14T12:25:24;15.00;;;10.80;;
16826;SDS011;8530;49.540;8.576;2023-12-14T12:27:52;20.73;;;12.67;;
16826;SDS011;8530;49.540;8.576;2023-12-14T12:30:19;17.80;;;11.90;;
16826;SDS011;8530;49.540;8.576;2023-12-14T12:32:46;22.03;;;12.07;;
16826;SDS011;8530;49.540;8.576;2023-12-14T12:35:13;15.77;;;12.23;;
16826;SDS011;8530;49.540;8.576;2023-12-14T12:37:41;16.50;;;12.60;;
16826;SDS011;8530;49.540;8.576;2023-12-14T12:40:09;13.77;;;11.33;;
16826;SDS011;8530;49.540;8.576;2023-12-14T12:42:36;17.50;;;11.73;;
16826;SDS011;8530;49.540;8.576;2023-12-14T12:45:03;13.60;;;10.93;;
16826;SDS011;8530;49.540;8.576;2023-12-14T12:47:30;13.77;;;11.00;;
16826;SDS011;8530;49.540;8.576;2023-12-14T12:49:57;16.57;;;11.87;;
16826;SDS011;8530;49.540;8.576;2023-12-14T12:52:24;18.10;;;10.67;;
16826;SDS011;8530;49.540;8.576;2023-12-14T12:54:53;15.20;;;13.03;;
16826;SDS011;8530;49.540;8.576;2023-12-14T12:57:19;24.30;;;12.77;;
16826;SDS011;8530;49.540;8.576;2023-12-14T12:59:46;13.17;;;11.10;;
16826;SDS011;8530;49.540;8.576;2023-12-14T13:02:13;14.87;;;11.40;;
16826;SDS011;8530;49.540;8.576;2023-12-14T13:04:40;16.33;;;13.10;;
16826;SDS011;8530;49.540;8.576;2023-12-14T13:07:07;16.00;;;11.63;;
16826;SDS011;8530;49.540;8.576;2023-12-14T13:09:34;15.70;;;11.80;;
16826;SDS011;8530;49.540;8.576;2023-12-14T13:12:02;15.43;;;12.33;;
16826;SDS011;8530;49.540;8.576;2023-12-14T13:14:29;21.47;;;12.33;;
16826;SDS011;8530;49.540;8.576;2023-12-14T13:16:56;17.50;;;12.80;;
16826;SDS011;8530;49.540;8.576;2023-12-14T13:19:23;15.73;;;11.23;;
16826;SDS011;8530;49.540;8.576;2023-12-14T13:21:51;17.50;;;12.50;;
16826;SDS011;8530;49.540;8.576;2023-12-14T13:24:17;17.10;;;12.00;;
16826;SDS011;8530;49.540;8.576;2023-12-14T13:26:44;14.77;;;11.47;;
16826;SDS011;8530;49.540;8.576;2023-12-14T13:29:12;14.33;;;10.50;;
16826;SDS011;8530;49.540;8.576;2023-12-14T13:31:39;15.20;;;11.00;;
16826;SDS011;8530;49.540;8.576;2023-12-14T13:34:06;13.60;;;10.93;;
16826;SDS011;8530;49.540;8.576;2023-12-14T13:36:33;15.20;;;11.63;;
16826;SDS011;8530;49.540;8.576;2023-12-14T13:38:59;13.00;;;10.37;;
16826;SDS011;8530;49.540;8.576;2023-12-14T13:41:27;12.80;;;10.87;;
16826;SDS011;8530;49.540;8.576;2023-12-14T13:43:58;13.00;;;11.60;;
16826;SDS011;8530;49.540;8.576;2023-12-14T13:46:27;14.63;;;11.33;;
16826;SDS011;8530;49.540;8.576;2023-12-14T13:48:53;13.80;;;11.23;;
16826;SDS011;8530;49.540;8.576;2023-12-14T13:51:20;14.00;;;10.50;;
16826;SDS011;8530;49.540;8.576;2023-12-14T13:53:47;12.13;;;9.00;;
16826;SDS011;8530;49.540;8.576;2023-12-14T13:56:14;14.60;;;9.90;;
16826;SDS011;8530;49.540;8.576;2023-12-14T13:58:40;12.00;;;9.33;;
16826;SDS011;8530;49.540;8.576;2023-12-14T14:01:07;14.47;;;10.73;;
16826;SDS011;8530;49.540;8.576;2023-12-14T14:03:35;14.20;;;9.30;;
16826;SDS011;8530;49.540;8.576;2023-12-14T14:06:03;11.70;;;9.47;;
16826;SDS011;8530;49.540;8.576;2023-12-14T14:08:30;12.57;;;9.70;;
16826;SDS011;8530;49.540;8.576;2023-12-14T14:10:57;11.27;;;8.27;;
16826;SDS011;8530;49.540;8.576;2023-12-14T14:13:25;12.07;;;9.33;;
16826;SDS011;8530;49.540;8.576;2023-12-14T14:15:52;14.23;;;9.77;;
16826;SDS011;8530;49.540;8.576;2023-12-14T14:18:19;10.97;;;9.70;;
16826;SDS011;8530;49.540;8.576;2023-12-14T14:20:47;11.87;;;9.77;;
16826;SDS011;8530;49.540;8.576;2023-12-14T14:23:14;13.17;;;10.57;;
16826;SDS011;8530;49.540;8.576;2023-12-14T14:25:40;10.10;;;7.67;;
16826;SDS011;8530;49.540;8.576;2023-12-14T14:28:07;11.60;;;8.93;;
16826;SDS011;8530;49.540;8.576;2023-12-14T14:30:34;12.03;;;7.33;;
16826;SDS011;8530;49.540;8.576;2023-12-14T14:33:00;11.13;;;8.37;;
16826;SDS011;8530;49.540;8.576;2023-12-14T14:35:27;8.50;;;5.90;;
16826;SDS011;8530;49.540;8.576;2023-12-14T14:37:55;8.67;;;7.23;;
16826;SDS011;8530;49.540;8.576;2023-12-14T14:40:22;7.60;;;6.80;;